Time;durP1;ratioP1;P1;durP2;ratioP2;P2;SDS_P1;SDS_P2;PMS_P1;PMS_P2;Temp;Humidity;BMP_temperature;BMP_pressure;BME280_temperature;BME280_humidity;BME280_pressure;Samples;Min_cycle;Max_cycle;Signal;HPM_P1;HPM_P2
2022/05/06 00:00:18;;;;;;;;;20.00;20.00;;;;;22.60;44.18;101373.58;110317;1262;22594;-50
2022/05/06 00:03:03;;;;;;;;;21.33;19.33;;;;;22.60;44.32;101373.06;110325;1262;18770;-49
2022/05/06 00:05:31;;;;;;;;;22.00;21.00;;;;;22.59;44.20;101374.17;110263;1262;22788;-50
2022/05/06 00:07:58;;;;;;;;;21.00;19.00;;;;;22.60;44.14;101371.61;110279;1262;24803;-49
2022/05/06 00:10:25;;;;;;;;;22.33;21.33;;;;;22.58;44.15;101364.23;110204;1261;22145;-51
2022/05/06 00:12:53;;;;;;;;;19.00;18.50;;;;;22.60;44.11;101361.92;110289;1264;19594;-50
2022/05/06 00:15:20;;;;;;;;;21.67;20.33;;;;;22.58;44.26;101359.01;110378;1261;18741;-47
2022/05/06 00:17:47;;;;;;;;;21.67;21.00;;;;;22.58;44.30;101360.48;110313;1262;21074;-48
2022/05/06 00:20:14;;;;;;;;;18.67;18.00;;;;;22.59;44.33;101357.80;110288;1262;19858;-48
2022/05/06 00:22:43;;;;;;;;;21.33;18.33;;;;;22.59;44.14;101352.57;110523;1261;18988;-48
2022/05/06 00:25:11;;;;;;;;;23.00;22.33;;;;;22.58;44.12;101355.93;110339;1262;18849;-48
2022/05/06 00:27:38;;;;;;;;;21.00;19.00;;;;;22.58;44.08;101362.30;110415;1262;19521;-50
2022/05/06 00:30:06;;;;;;;;;22.00;20.33;;;;;22.58;44.10;101366.26;110293;1262;18811;-48
2022/05/06 00:32:33;;;;;;;;;20.33;19.67;;;;;22.59;44.22;101368.35;110283;1262;18836;-46
2022/05/06 00:35:00;;;;;;;;;20.67;19.00;;;;;22.59;44.25;101365.30;110262;1262;19518;-47
2022/05/06 00:37:28;;;;;;;;;15.00;15.00;;;;;22.59;44.16;101367.28;110350;1262;21160;-50
2022/05/06 00:39:55;;;;;;;;;20.00;19.00;;;;;22.58;44.11;101363.73;110284;1264;18941;-49
2022/05/06 00:42:22;;;;;;;;;20.67;19.33;;;;;22.58;44.27;101364.98;110288;1264;22244;-49
2022/05/06 00:44:49;;;;;;;;;22.00;21.00;;;;;22.58;44.08;101364.98;110242;1264;18922;-52
2022/05/06 00:47:17;;;;;;;;;20.00;20.00;;;;;22.58;44.15;101368.98;110315;1264;18793;-48
2022/05/06 00:49:44;;;;;;;;;21.67;19.67;;;;;22.58;44.20;101369.23;110343;1263;19366;-49
2022/05/06 00:52:11;;;;;;;;;19.00;19.00;;;;;22.58;44.20;101367.05;110266;1264;22179;-49
2022/05/06 00:54:38;;;;;;;;;19.00;19.00;;;;;22.58;44.26;101374.27;110320;1265;20933;-50
2022/05/06 00:57:06;;;;;;;;;18.67;18.33;;;;;22.58;44.22;101372.98;110275;1264;19677;-48
2022/05/06 00:59:33;;;;;;;;;22.00;21.00;;;;;22.58;44.38;101369.52;110292;1264;18718;-49
2022/05/06 01:02:20;;;;;;;;;18.50;18.50;;;;;22.58;44.16;101377.02;110235;1264;18811;-49
2022/05/06 01:04:47;;;;;;;;;23.00;21.00;;;;;22.58;44.13;101377.38;110315;1264;19492;-49
2022/05/06 01:07:19;;;;;;;;;20.33;20.33;;;;;22.59;44.18;101380.58;110283;1264;18694;-48
2022/05/06 01:09:46;;;;;;;;;22.33;19.00;;;;;22.59;44.35;101374.55;110251;1263;18846;-52
2022/05/06 01:12:13;;;;;;;;;21.50;21.00;;;;;22.58;44.23;101372.64;110253;1265;19546;-51
2022/05/06 01:14:41;;;;;;;;;21.00;18.67;;;;;22.59;44.23;101375.83;110283;1265;19011;-49
2022/05/06 01:17:09;;;;;;;;;21.00;18.00;;;;;22.59;44.28;101376.89;110295;1264;19149;-50
2022/05/06 01:19:36;;;;;;;;;18.00;17.33;;;;;22.59;44.18;101377.88;110341;1264;19795;-49
2022/05/06 01:22:03;;;;;;;;;22.00;19.00;;;;;22.58;44.35;101377.73;110300;1263;18798;-52
2022/05/06 01:24:31;;;;;;;;;20.33;19.67;;;;;22.58;44.22;101382.71;110287;1264;21980;-51
2022/05/06 01:26:58;;;;;;;;;21.00;18.67;;;;;22.58;44.36;101394.84;110298;1265;19608;-54
2022/05/06 01:29:26;;;;;;;;;18.00;18.00;;;;;22.58;44.39;101395.21;110210;1263;18873;-51
2022/05/06 01:31:54;;;;;;;;;21.00;18.00;;;;;22.58;44.27;101403.06;110266;1264;18765;-50
2022/05/06 01:34:21;;;;;;;;;17.00;17.00;;;;;22.59;44.37;101403.36;110329;1264;19632;-53
2022/05/06 01:36:48;;;;;;;;;19.00;18.00;;;;;22.59;44.26;101398.84;110271;1265;18913;-49
2022/05/06 01:39:17;;;;;;;;;17.00;17.00;;;;;22.59;44.24;101398.29;110268;1263;19519;-51
2022/05/06 01:41:45;;;;;;;;;19.00;19.00;;;;;22.58;44.34;101399.83;110309;1264;19721;-50
2022/05/06 01:44:12;;;;;;;;;22.67;21.67;;;;;22.58;44.42;101400.95;110279;1264;18733;-49
2022/05/06 01:46:39;;;;;;;;;18.67;18.67;;;;;22.58;44.34;101408.56;110312;1264;18909;-49
2022/05/06 01:49:07;;;;;;;;;21.33;19.00;;;;;22.58;44.41;101412.17;110294;1264;19627;-48
2022/05/06 01:51:34;;;;;;;;;21.00;19.00;;;;;22.58;44.18;101418.34;110281;1264;22813;-49
2022/05/06 01:54:02;;;;;;;;;17.00;15.67;;;;;22.59;44.32;101417.52;110265;1264;18745;-49
2022/05/06 01:56:29;;;;;;;;;18.33;18.00;;;;;22.59;44.16;101422.08;110312;1264;20914;-49
2022/05/06 01:58:56;;;;;;;;;21.33;19.00;;;;;22.58;44.18;101428.07;110247;1264;18722;-49
2022/05/06 02:01:24;;;;;;;;;20.67;18.33;;;;;22.59;44.27;101435.61;110331;1263;18859;-48
2022/05/06 02:06:36;;;;;;;;;20.67;18.33;;;;;22.58;44.23;101438.02;110241;1265;18958;-47
2022/05/06 02:09:04;;;;;;;;;21.00;19.67;;;;;22.57;44.16;101437.56;110222;1264;18876;-48
2022/05/06 02:11:31;;;;;;;;;20.33;19.00;;;;;22.57;44.19;101438.66;110299;1264;21145;-55
2022/05/06 02:13:58;;;;;;;;;20.00;19.00;;;;;22.57;44.13;101439.41;110267;1265;22373;-49
2022/05/06 02:16:25;;;;;;;;;19.00;18.00;;;;;22.58;44.09;101441.02;110346;1264;18761;-48
2022/05/06 02:18:53;;;;;;;;;21.33;21.33;;;;;22.57;44.17;101434.91;110269;1264;19467;-48
2022/05/06 02:21:20;;;;;;;;;22.00;20.50;;;;;22.57;44.14;101433.48;110287;1264;19029;-49
2022/05/06 02:23:47;;;;;;;;;20.00;18.00;;;;;22.57;44.09;101437.05;110314;1263;19034;-52
2022/05/06 02:26:14;;;;;;;;;21.00;19.00;;;;;22.57;44.10;101430.33;110306;1264;19573;-48
2022/05/06 02:28:42;;;;;;;;;18.33;18.00;;;;;22.58;44.02;101428.45;110323;1264;18768;-48
2022/05/06 02:33:54;;;;;;;;;22.67;20.00;;;;;22.57;44.27;101422.51;110262;1264;19529;-48
2022/05/06 02:36:21;;;;;;;;;21.67;20.67;;;;;22.56;44.04;101419.34;110289;1264;18791;-49
2022/05/06 02:38:49;;;;;;;;;20.00;20.00;;;;;22.56;43.97;101416.61;110305;1263;22226;-48
2022/05/06 02:41:16;;;;;;;;;18.33;17.33;;;;;22.56;44.08;101414.20;110298;1265;20448;-49
2022/05/06 02:43:43;;;;;;;;;21.00;19.00;;;;;22.57;43.94;101415.48;110304;1265;18682;-45
2022/05/06 02:46:11;;;;;;;;;20.50;19.00;;;;;22.57;44.14;101418.16;110221;1263;18855;-48
2022/05/06 02:48:38;;;;;;;;;24.00;20.67;;;;;22.56;43.97;101418.96;110299;1264;19513;-49
2022/05/06 02:51:05;;;;;;;;;21.00;19.00;;;;;22.57;44.03;101415.06;110303;1264;18683;-51
2022/05/06 02:53:33;;;;;;;;;21.33;19.67;;;;;22.57;43.85;101419.84;110311;1265;18958;-50
2022/05/06 02:56:00;;;;;;;;;20.67;20.67;;;;;22.57;44.04;101427.39;110272;1265;19668;-49
2022/05/06 02:58:27;;;;;;;;;18.67;18.67;;;;;22.57;44.10;101425.61;110340;1264;18802;-50
2022/05/06 03:00:54;;;;;;;;;19.67;18.67;;;;;22.57;44.03;101429.23;110278;1264;18774;-49
2022/05/06 03:03:22;;;;;;;;;25.33;21.33;;;;;22.57;44.13;101430.91;110279;1264;19519;-49
2022/05/06 03:05:49;;;;;;;;;24.67;22.67;;;;;22.57;44.14;101436.20;110315;1263;18670;-49
2022/05/06 03:08:16;;;;;;;;;22.67;22.00;;;;;22.56;44.10;101441.91;110296;1264;18884;-48
2022/05/06 03:10:43;;;;;;;;;17.67;17.00;;;;;22.56;44.26;101438.80;110275;1264;19458;-48
2022/05/06 03:13:10;;;;;;;;;19.67;18.67;;;;;22.56;44.23;101439.34;110288;1264;18812;-50
2022/05/06 03:15:38;;;;;;;;;19.00;18.00;;;;;22.56;44.23;101441.74;110258;1265;18921;-48
2022/05/06 03:18:05;;;;;;;;;21.33;21.00;;;;;22.56;44.15;101440.82;110294;1264;19540;-49
2022/05/06 03:20:32;;;;;;;;;19.67;18.33;;;;;22.56;44.20;101439.89;110118;1264;22893;-50
2022/05/06 03:23:00;;;;;;;;;20.00;19.00;;;;;22.56;44.10;101442.08;110177;1264;19042;-49
2022/05/06 03:25:27;;;;;;;;;19.00;17.33;;;;;22.57;44.04;101448.43;110303;1264;19684;-52
2022/05/06 03:28:02;;;;;;;;;19.00;18.33;;;;;22.57;43.90;101452.05;110246;1264;20438;-54
2022/05/06 03:30:30;;;;;;;;;20.33;18.33;;;;;22.56;44.06;101453.39;110283;1264;22500;-48
2022/05/06 03:32:57;;;;;;;;;19.00;18.00;;;;;22.57;43.97;101459.16;110293;1265;19654;-48
2022/05/06 03:35:27;;;;;;;;;21.00;20.67;;;;;22.56;44.12;101462.47;110233;1264;19669;-43
2022/05/06 03:37:54;;;;;;;;;20.67;19.33;;;;;22.55;44.06;101465.52;110273;1264;20859;-50
2022/05/06 03:40:21;;;;;;;;;22.33;19.00;;;;;22.56;43.95;101468.89;110452;1261;19472;-50
2022/05/06 03:42:48;;;;;;;;;18.67;18.00;;;;;22.56;43.90;101472.04;110436;1262;18778;-49
2022/05/06 03:45:16;;;;;;;;;21.67;21.33;;;;;22.56;43.99;101477.77;110472;1261;18663;-47
2022/05/06 03:47:43;;;;;;;;;19.00;19.00;;;;;22.56;44.01;101475.10;110448;1262;22064;-49
2022/05/06 03:52:55;;;;;;;;;20.00;19.00;;;;;22.55;43.95;101473.88;110383;1261;18976;-50
2022/05/06 03:55:23;;;;;;;;;20.50;19.50;;;;;22.55;43.97;101469.38;110449;1261;20948;-49
2022/05/06 03:57:50;;;;;;;;;23.00;22.00;;;;;22.55;44.19;101473.20;110443;1262;18842;-49
2022/05/06 04:00:18;;;;;;;;;20.67;20.67;;;;;22.56;43.98;101475.52;110423;1262;18912;-49
2022/05/06 04:02:46;;;;;;;;;21.67;20.67;;;;;22.56;43.99;101484.23;110375;1262;19472;-49
2022/05/06 04:05:13;;;;;;;;;23.00;21.67;;;;;22.56;44.07;101483.86;110339;1261;19048;-49
2022/05/06 04:07:41;;;;;;;;;20.00;19.67;;;;;22.55;43.99;101480.48;110399;1261;18821;-48
2022/05/06 04:10:08;;;;;;;;;23.67;22.67;;;;;22.55;44.25;101489.73;110411;1262;20034;-46
2022/05/06 04:12:36;;;;;;;;;21.67;20.67;;;;;22.56;44.21;101495.12;110424;1262;19262;-49
2022/05/06 04:15:03;;;;;;;;;24.00;22.00;;;;;22.55;44.25;101495.39;110363;1261;18961;-50
2022/05/06 04:17:30;;;;;;;;;22.00;21.00;;;;;22.56;44.05;101498.95;110360;1262;19778;-50
2022/05/06 04:25:28;;;;;;;;;21.00;19.00;;;;;22.55;44.19;101505.77;110339;1262;23409;-50
2022/05/06 04:27:56;;;;;;;;;17.33;17.33;;;;;22.56;44.15;101509.84;110343;1262;18713;-48
2022/05/06 04:30:23;;;;;;;;;21.33;21.00;;;;;22.55;44.04;101507.39;110320;1262;18907;-48
2022/05/06 04:32:50;;;;;;;;;17.50;16.00;;;;;22.56;44.14;101506.25;110321;1262;22088;-49
2022/05/06 04:35:18;;;;;;;;;21.00;18.33;;;;;22.56;43.97;101507.17;110292;1262;18793;-50
2022/05/06 04:37:46;;;;;;;;;24.33;22.67;;;;;22.56;44.09;101511.21;110376;1262;18795;-49
2022/05/06 04:40:13;;;;;;;;;23.50;23.50;;;;;22.57;44.03;101514.04;110320;1262;19656;-47
2022/05/06 04:42:41;;;;;;;;;21.33;20.00;;;;;22.56;44.11;101512.46;110325;1262;18827;-50
2022/05/06 04:45:08;;;;;;;;;18.33;18.33;;;;;22.56;43.95;101516.94;110322;1261;18885;-49
2022/05/06 04:47:37;;;;;;;;;20.00;19.33;;;;;22.56;43.85;101519.33;110291;1262;19507;-48
2022/05/06 04:50:04;;;;;;;;;21.00;20.67;;;;;22.56;43.97;101520.84;110316;1262;18855;-50
2022/05/06 04:52:32;;;;;;;;;22.33;19.00;;;;;22.57;43.96;101524.93;110261;1264;19113;-49
2022/05/06 04:54:59;;;;;;;;;19.00;19.00;;;;;22.57;43.75;101521.07;110404;1261;19576;-49
2022/05/06 04:57:26;;;;;;;;;18.67;17.00;;;;;22.58;43.92;101518.95;110362;1262;19231;-51
2022/05/06 04:59:53;;;;;;;;;23.00;21.00;;;;;22.59;43.86;101517.73;110314;1262;21843;-48
2022/05/06 05:02:21;;;;;;;;;16.67;15.33;;;;;22.62;43.68;101524.70;110231;1264;24429;-49
2022/05/06 05:04:52;;;;;;;;;21.00;18.00;;;;;22.64;43.63;101532.64;110485;1261;18838;-51
2022/05/06 05:07:20;;;;;;;;;17.00;17.00;;;;;22.65;43.87;101531.60;110305;1262;19009;-50
2022/05/06 05:09:47;;;;;;;;;19.00;18.00;;;;;22.73;44.72;101531.94;110418;1262;19607;-50
2022/05/06 05:12:15;;;;;;;;;17.00;15.00;;;;;22.75;44.93;101530.58;110262;1265;18876;-48
2022/05/06 05:14:42;;;;;;;;;20.33;19.00;;;;;22.74;44.41;101531.64;110342;1262;18917;-49
2022/05/06 05:17:10;;;;;;;;;19.00;19.00;;;;;22.73;44.74;101536.77;110451;1261;19802;-49
2022/05/06 05:19:37;;;;;;;;;18.50;18.00;;;;;22.75;44.66;101533.44;110299;1264;18817;-54
2022/05/06 05:22:04;;;;;;;;;17.00;17.00;;;;;22.74;44.69;101532.86;110405;1262;18942;-44
2022/05/06 05:24:32;;;;;;;;;18.00;18.00;;;;;22.76;44.64;101533.75;110272;1264;20113;-52
2022/05/06 05:26:59;;;;;;;;;18.00;17.00;;;;;22.76;44.61;101537.43;110431;1261;18812;-48
2022/05/06 05:29:27;;;;;;;;;18.67;18.00;;;;;22.75;44.82;101540.00;110257;1264;23197;-49
2022/05/06 05:31:54;;;;;;;;;18.50;18.00;;;;;22.82;44.90;101540.93;110307;1263;19535;-49
2022/05/06 05:34:21;;;;;;;;;20.33;17.67;;;;;22.87;45.22;101539.47;110381;1262;18864;-49
2022/05/06 05:36:48;;;;;;;;;17.33;17.00;;;;;22.88;45.23;101542.22;110400;1262;18828;-47
2022/05/06 05:39:16;;;;;;;;;19.00;18.00;;;;;22.96;45.38;101544.23;110275;1264;19992;-49
2022/05/06 05:41:43;;;;;;;;;17.00;16.33;;;;;23.03;45.51;101547.98;110458;1261;20564;-49
2022/05/06 05:49:41;;;;;;;;;18.00;15.33;;;;;23.10;45.54;101550.71;110452;1262;18783;-48
2022/05/06 05:52:08;;;;;;;;;21.00;19.00;;;;;23.06;45.44;101549.48;110295;1262;19053;-49
2022/05/06 05:54:36;;;;;;;;;15.00;14.67;;;;;23.04;45.38;101554.61;110205;1262;19628;-48
2022/05/06 05:57:04;;;;;;;;;17.00;17.00;;;;;23.06;45.39;101550.81;110291;1262;18763;-50
2022/05/06 05:59:33;;;;;;;;;18.33;18.33;;;;;23.10;45.42;101551.09;110380;1262;18937;-49
2022/05/06 06:02:00;;;;;;;;;19.00;15.00;;;;;23.18;45.77;101551.96;110475;1262;19507;-53
2022/05/06 06:04:28;;;;;;;;;15.33;15.33;;;;;23.23;45.94;101551.36;110350;1262;18785;-49
2022/05/06 06:06:55;;;;;;;;;16.00;16.00;;;;;23.24;45.99;101555.88;110418;1262;18815;-50
2022/05/06 06:09:23;;;;;;;;;15.33;14.00;;;;;23.26;45.89;101554.89;110380;1262;19652;-50
2022/05/06 06:11:51;;;;;;;;;14.33;14.00;;;;;23.25;45.67;101553.95;110258;1262;18853;-48
2022/05/06 06:14:18;;;;;;;;;15.00;15.00;;;;;23.16;45.03;101553.98;110313;1261;18847;-53
2022/05/06 06:16:45;;;;;;;;;16.00;15.00;;;;;22.87;43.71;101554.02;110126;1264;19629;-48
2022/05/06 06:19:13;;;;;;;;;15.33;15.33;;;;;22.68;43.13;101555.54;110361;1261;20117;-49
2022/05/06 06:21:40;;;;;;;;;17.33;17.33;;;;;22.57;42.60;101554.45;110308;1261;18930;-49
2022/05/06 06:24:07;;;;;;;;;14.33;14.00;;;;;22.43;42.12;101559.17;110341;1262;19607;-48
2022/05/06 06:26:35;;;;;;;;;19.33;18.33;;;;;22.33;41.82;101558.27;110359;1262;18846;-49
2022/05/06 06:29:02;;;;;;;;;15.00;14.33;;;;;22.27;41.58;101558.08;110310;1262;19170;-48
2022/05/06 06:31:31;;;;;;;;;17.67;15.00;;;;;22.33;41.71;101563.05;110258;1262;19637;-49
2022/05/06 06:33:59;;;;;;;;;14.00;14.00;;;;;22.38;41.26;101561.96;110370;1262;18658;-49
2022/05/06 06:36:26;;;;;;;;;13.67;13.00;;;;;22.40;40.93;101558.69;110263;1262;21997;-51
2022/05/06 06:38:54;;;;;;;;;18.33;14.33;;;;;22.39;40.59;101561.86;110311;1261;22877;-51
2022/05/06 06:41:21;;;;;;;;;16.00;14.50;;;;;22.38;40.22;101560.84;110340;1261;18806;-52
2022/05/06 06:43:49;;;;;;;;;16.00;13.33;;;;;22.32;40.56;101558.80;110372;1262;18937;-48
2022/05/06 06:46:16;;;;;;;;;15.00;14.67;;;;;22.42;41.10;101559.52;110432;1262;19658;-49
2022/05/06 06:48:44;;;;;;;;;17.00;11.00;;;;;22.54;41.42;101559.15;110413;1262;18724;-48
2022/05/06 06:51:11;;;;;;;;;13.00;13.00;;;;;22.48;41.55;101566.48;110264;1262;18969;-49
2022/05/06 06:53:38;;;;;;;;;14.00;13.67;;;;;22.45;41.44;101567.75;110378;1262;19461;-48
2022/05/06 06:56:05;;;;;;;;;10.33;10.00;;;;;22.42;40.76;101565.14;110371;1261;18674;-48
2022/05/06 06:58:33;;;;;;;;;10.67;10.00;;;;;22.38;40.85;101572.34;110259;1262;18867;-49
2022/05/06 07:01:00;;;;;;;;;15.50;15.00;;;;;22.37;40.29;101571.73;110379;1262;19679;-49
2022/05/06 07:03:28;;;;;;;;;15.00;14.00;;;;;22.37;39.81;101572.99;110167;1264;23580;-49
2022/05/06 07:14:10;;;;;;;;;14.00;13.00;;;;;22.31;38.25;101576.77;110408;1262;19652;-46
2022/05/06 07:16:39;;;;;;;;;15.00;13.67;;;;;22.11;38.29;101574.02;110438;1261;22861;-48
2022/05/06 07:19:06;;;;;;;;;10.67;10.67;;;;;22.09;38.48;101580.39;110258;1262;19153;-51
2022/05/06 07:21:34;;;;;;;;;14.00;14.00;;;;;22.13;38.35;101577.59;110247;1264;19110;-50
2022/05/06 07:24:01;;;;;;;;;14.67;13.00;;;;;22.21;37.96;101575.00;110216;1264;23234;-59
2022/05/06 07:26:28;;;;;;;;;14.50;13.50;;;;;22.26;37.41;101576.65;110251;1265;18797;-49
2022/05/06 07:28:55;;;;;;;;;11.00;11.00;;;;;22.32;37.43;101578.30;110273;1264;18829;-50
2022/05/06 07:31:23;;;;;;;;;14.00;12.33;;;;;22.35;37.19;101579.42;110141;1265;23629;-50
2022/05/06 07:33:51;;;;;;;;;14.33;13.33;;;;;22.40;37.42;101578.34;110108;1264;24807;-49
2022/05/06 07:36:18;;;;;;;;;11.33;10.67;;;;;22.41;36.83;101574.55;110164;1263;22229;-51
2022/05/06 07:38:46;;;;;;;;;12.33;10.67;;;;;22.39;36.72;101574.73;109719;1263;706095;-52
2022/05/06 07:41:13;;;;;;;;;11.00;10.00;;;;;22.41;36.64;101576.77;110211;1265;19035;-49
2022/05/06 07:43:40;;;;;;;;;6.33;6.00;;;;;22.45;36.75;101573.95;110261;1264;18812;-50
2022/05/06 07:46:09;;;;;;;;;10.00;10.00;;;;;22.48;36.74;101573.48;110210;1262;21758;-50
2022/05/06 07:48:36;;;;;;;;;11.00;11.00;;;;;22.49;36.77;101576.91;110239;1264;18437;-50
2022/05/06 07:51:03;;;;;;;;;11.00;10.33;;;;;22.51;36.86;101579.64;110227;1264;19200;-48
2022/05/06 07:53:30;;;;;;;;;9.00;9.00;;;;;22.51;36.71;101579.98;110156;1264;19676;-48
2022/05/06 07:55:58;;;;;;;;;13.50;13.00;;;;;22.49;36.45;101584.05;110260;1264;22872;-49
2022/05/06 07:58:25;;;;;;;;;10.67;10.67;;;;;22.51;36.54;101581.68;110119;1264;19007;-48
2022/05/06 08:00:52;;;;;;;;;11.00;11.00;;;;;22.50;36.55;101582.38;110163;1264;19597;-48
2022/05/06 08:06:04;;;;;;;;;11.00;10.67;;;;;22.49;36.02;101581.77;110150;1264;19193;-49
2022/05/06 08:08:32;;;;;;;;;13.00;11.33;;;;;22.49;35.87;101586.06;110263;1265;22055;-48
2022/05/06 08:10:59;;;;;;;;;11.33;10.33;;;;;22.47;35.89;101583.08;110302;1263;18898;-52
2022/05/06 08:13:26;;;;;;;;;10.00;10.00;;;;;22.46;35.85;101587.51;110270;1264;18953;-49
2022/05/06 08:15:55;;;;;;;;;9.67;9.67;;;;;22.51;35.93;101584.59;110287;1264;19403;-50
2022/05/06 08:18:22;;;;;;;;;11.67;11.67;;;;;22.55;36.10;101586.48;110145;1264;18808;-50
2022/05/06 08:20:50;;;;;;;;;9.33;9.33;;;;;22.56;36.07;101584.57;110056;1265;20921;-49
2022/05/06 08:23:17;;;;;;;;;11.00;10.00;;;;;22.56;35.88;101584.42;110275;1264;19695;-50
2022/05/06 08:25:44;;;;;;;;;10.00;9.00;;;;;22.56;35.73;101590.33;110209;1264;18556;-51
2022/05/06 08:28:13;;;;;;;;;10.00;9.33;;;;;22.53;35.61;101588.19;110291;1265;19641;-50
2022/05/06 08:30:40;;;;;;;;;11.00;11.00;;;;;22.57;35.69;101587.95;110241;1264;22615;-46
2022/05/06 08:33:08;;;;;;;;;10.00;10.00;;;;;22.51;35.26;101584.25;110270;1265;18769;-50
2022/05/06 08:35:35;;;;;;;;;10.00;10.00;;;;;22.51;35.33;101580.43;110232;1264;18785;-51
2022/05/06 08:38:02;;;;;;;;;12.00;10.33;;;;;22.48;35.18;101579.33;110302;1264;19570;-52
2022/05/06 08:40:31;;;;;;;;;9.67;9.67;;;;;22.45;35.02;101579.02;110321;1265;18980;-51
2022/05/06 08:42:58;;;;;;;;;10.00;9.00;;;;;22.49;35.09;101576.66;110305;1262;27913;-50
2022/05/06 08:50:55;;;;;;;;;9.00;7.33;;;;;22.63;34.87;101582.15;110284;1263;18868;-49
2022/05/06 08:53:22;;;;;;;;;9.50;9.00;;;;;22.67;34.74;101584.64;110275;1265;20197;-50
2022/05/06 08:55:50;;;;;;;;;10.00;10.00;;;;;22.71;34.59;101581.84;110302;1264;23644;-53
2022/05/06 08:58:17;;;;;;;;;10.67;10.33;;;;;22.73;34.61;101582.37;110234;1264;18896;-50
2022/05/06 09:00:45;;;;;;;;;10.00;9.33;;;;;22.70;34.57;101582.13;110186;1264;19487;-50
2022/05/06 09:03:13;;;;;;;;;9.00;9.00;;;;;22.72;35.03;101582.05;110260;1263;18665;-47
2022/05/06 09:05:40;;;;;;;;;10.00;9.00;;;;;22.73;35.37;101583.42;110260;1264;19355;-46
2022/05/06 09:08:07;;;;;;;;;9.50;9.50;;;;;22.73;35.28;101579.42;110268;1264;22117;-49
2022/05/06 09:10:35;;;;;;;;;10.00;10.00;;;;;22.78;35.66;101578.55;110301;1265;21033;-50
2022/05/06 09:13:02;;;;;;;;;10.00;10.00;;;;;22.79;35.61;101584.08;110146;1264;20541;-51
2022/05/06 09:18:14;;;;;;;;;9.33;9.00;;;;;22.80;35.23;101584.63;110268;1264;18741;-51
2022/05/06 09:20:41;;;;;;;;;7.00;7.00;;;;;22.79;35.14;101583.64;110309;1262;19113;-50
2022/05/06 09:23:09;;;;;;;;;9.67;9.00;;;;;22.77;35.01;101583.94;110287;1264;19500;-51
2022/05/06 09:25:36;;;;;;;;;9.00;7.00;;;;;22.76;34.96;101584.89;110275;1265;18422;-50
2022/05/06 09:28:03;;;;;;;;;9.33;9.00;;;;;22.75;34.92;101588.38;110242;1264;19125;-49
2022/05/06 09:30:30;;;;;;;;;7.00;7.00;;;;;22.72;34.91;101585.54;110245;1264;19403;-50
2022/05/06 09:32:58;;;;;;;;;7.00;7.00;;;;;22.71;34.96;101580.05;110240;1264;18639;-51
2022/05/06 09:35:25;;;;;;;;;9.00;9.00;;;;;22.72;34.75;101576.21;110252;1264;18776;-50
2022/05/06 09:37:52;;;;;;;;;13.00;11.00;;;;;22.78;34.60;101581.64;110298;1264;19654;-49
2022/05/06 09:40:20;;;;;;;;;10.33;10.00;;;;;22.75;34.64;101585.00;110236;1264;22183;-50
2022/05/06 09:42:47;;;;;;;;;9.67;9.00;;;;;22.78;34.77;101590.20;110287;1264;22367;-50
2022/05/06 09:45:14;;;;;;;;;11.67;9.00;;;;;22.83;34.72;101590.34;110247;1264;19606;-48
2022/05/06 09:47:42;;;;;;;;;7.00;7.00;;;;;22.80;34.36;101581.77;110195;1264;20526;-50
2022/05/06 09:50:09;;;;;;;;;7.00;7.00;;;;;22.78;34.59;101579.40;110295;1264;18667;-50
2022/05/06 09:52:37;;;;;;;;;7.00;7.00;;;;;22.88;34.69;101578.36;110301;1264;19510;-51
2022/05/06 09:55:04;;;;;;;;;9.00;7.67;;;;;22.89;34.62;101578.72;110253;1264;18655;-51
2022/05/06 09:57:32;;;;;;;;;7.00;6.00;;;;;22.82;34.56;101576.59;110291;1264;18694;-50
2022/05/06 09:59:59;;;;;;;;;6.00;6.00;;;;;22.82;34.44;101579.75;110269;1262;19561;-50
2022/05/06 10:02:26;;;;;;;;;8.00;7.00;;;;;22.76;34.16;101578.95;110230;1265;18822;-50
2022/05/06 10:04:53;;;;;;;;;9.00;7.00;;;;;22.69;34.24;101578.81;110293;1264;18852;-50
2022/05/06 10:07:20;;;;;;;;;9.50;8.00;;;;;22.68;34.21;101572.18;110083;1264;20053;-49
2022/05/06 10:09:48;;;;;;;;;9.00;7.00;;;;;22.63;34.13;101569.41;110136;1264;18296;-51
2022/05/06 10:12:16;;;;;;;;;10.00;9.33;;;;;22.56;34.09;101574.15;110287;1263;18992;-54
2022/05/06 10:14:43;;;;;;;;;8.33;8.33;;;;;22.59;33.90;101579.45;110315;1264;22938;-48
2022/05/06 10:17:11;;;;;;;;;9.00;9.00;;;;;22.68;33.94;101575.08;110288;1264;18793;-49
2022/05/06 10:19:38;;;;;;;;;7.00;7.00;;;;;22.70;33.85;101576.89;110333;1263;18773;-51
2022/05/06 10:22:05;;;;;;;;;7.67;7.00;;;;;22.69;33.74;101574.64;110236;1264;19524;-50
2022/05/06 10:24:32;;;;;;;;;9.00;9.00;;;;;22.68;33.45;101578.70;110090;1265;19984;-50
2022/05/06 10:26:59;;;;;;;;;8.33;7.00;;;;;22.58;33.37;101571.96;110031;1264;22678;-47
2022/05/06 10:32:27;;;;;;;;;7.33;6.33;;;;;22.58;33.79;101573.27;110162;1264;18462;-50
2022/05/06 10:34:54;;;;;;;;;6.67;6.67;;;;;22.59;34.09;101571.63;110281;1265;22722;-50
2022/05/06 10:37:22;;;;;;;;;7.67;7.67;;;;;22.57;34.55;101575.73;110207;1264;19697;-48
2022/05/06 10:39:49;;;;;;;;;9.00;9.00;;;;;22.62;34.31;101569.98;110306;1262;20165;-51
2022/05/06 10:42:16;;;;;;;;;8.67;6.33;;;;;22.56;34.17;101569.14;110219;1264;22290;-52
2022/05/06 10:44:44;;;;;;;;;7.00;6.00;;;;;22.51;34.24;101570.86;110190;1264;19332;-50
2022/05/06 10:47:11;;;;;;;;;8.00;6.00;;;;;22.52;34.42;101571.89;110275;1264;18513;-49
2022/05/06 10:49:38;;;;;;;;;6.00;6.00;;;;;22.53;34.38;101562.70;110330;1263;18698;-50
2022/05/06 10:52:05;;;;;;;;;9.00;7.00;;;;;22.60;34.65;101567.19;110279;1264;20316;-50
2022/05/06 10:54:33;;;;;;;;;6.00;6.00;;;;;22.61;34.19;101559.74;110294;1265;18455;-49
2022/05/06 10:57:00;;;;;;;;;9.00;7.00;;;;;22.65;34.18;101564.80;110276;1264;18690;-50
2022/05/06 10:59:27;;;;;;;;;7.00;7.00;;;;;22.61;34.35;101560.63;110276;1265;20882;-51
2022/05/06 11:01:54;;;;;;;;;6.67;6.67;;;;;22.68;34.99;101561.01;110350;1264;18407;-50
2022/05/06 11:04:21;;;;;;;;;7.00;6.67;;;;;22.73;34.82;101556.61;110194;1264;19002;-49
2022/05/06 11:06:49;;;;;;;;;9.00;7.00;;;;;22.66;34.62;101554.55;110065;1263;21223;-47
2022/05/06 11:09:16;;;;;;;;;8.50;6.00;;;;;22.59;34.67;101547.94;110047;1264;19805;-49
2022/05/06 11:11:43;;;;;;;;;9.33;9.00;;;;;22.62;34.95;101550.86;110216;1263;22022;-46
2022/05/06 11:14:10;;;;;;;;;6.67;6.67;;;;;22.65;34.79;101547.17;110258;1265;19447;-51
2022/05/06 11:16:38;;;;;;;;;10.67;10.00;;;;;22.63;34.72;101540.66;110100;1264;18659;-49
2022/05/06 11:19:07;;;;;;;;;7.00;6.33;;;;;22.57;34.60;101540.38;110150;1262;19204;-51
2022/05/06 11:21:34;;;;;;;;;9.67;9.67;;;;;22.56;34.40;101535.73;110185;1264;19575;-50
2022/05/06 11:24:01;;;;;;;;;7.00;7.00;;;;;22.63;34.35;101535.70;110259;1264;18449;-49
2022/05/06 11:26:29;;;;;;;;;8.33;7.00;;;;;22.70;34.32;101536.24;110211;1264;18814;-50
2022/05/06 11:28:57;;;;;;;;;8.33;7.67;;;;;22.68;34.06;101530.77;110212;1264;19745;-49
2022/05/06 11:31:24;;;;;;;;;9.00;9.00;;;;;22.72;34.37;101530.88;110059;1265;21550;-48
2022/05/06 11:33:51;;;;;;;;;9.00;7.00;;;;;22.73;34.20;101528.83;109993;1265;18819;-50
2022/05/06 11:36:18;;;;;;;;;7.00;7.00;;;;;22.68;33.99;101527.54;110048;1263;22582;-52
2022/05/06 11:38:47;;;;;;;;;7.00;7.00;;;;;22.62;33.84;101524.91;110139;1265;18420;-55
2022/05/06 11:41:14;;;;;;;;;9.33;9.00;;;;;22.52;33.68;101526.40;110284;1264;19893;-49
2022/05/06 11:43:41;;;;;;;;;10.00;7.67;;;;;22.49;33.74;101527.98;110339;1264;19735;-51
2022/05/06 11:48:53;;;;;;;;;9.00;7.00;;;;;22.46;33.54;101521.79;110268;1264;19020;-49